sensor_id;sensor_type;location;lat;lon;timestamp;P1;durP1;ratioP1;P2;durP2;ratioP2
24715;SDS011;12822;50.124;8.678;2023-01-24T00:01:02;30.08;;;15.75;;
24715;SDS011;12822;50.124;8.678;2023-01-24T00:03:28;30.45;;;16.45;;
24715;SDS011;12822;50.124;8.678;2023-01-24T00:05:54;32.17;;;16.77;;
24715;SDS011;12822;50.124;8.678;2023-01-24T00:08:20;35.75;;;17.02;;
24715;SDS011;12822;50.124;8.678;2023-01-24T00:10:49;29.27;;;16.02;;
24715;SDS011;12822;50.124;8.678;2023-01-24T00:13:15;31.98;;;16.55;;
24715;SDS011;12822;50.124;8.678;2023-01-24T00:15:41;31.60;;;16.95;;
24715;SDS011;12822;50.124;8.678;2023-01-24T00:18:07;32.13;;;16.98;;
24715;SDS011;12822;50.124;8.678;2023-01-24T00:20:34;29.95;;;15.63;;
24715;SDS011;12822;50.124;8.678;2023-01-24T00:23:00;31.65;;;17.17;;
24715;SDS011;12822;50.124;8.678;2023-01-24T00:25:26;29.95;;;14.98;;
24715;SDS011;12822;50.124;8.678;2023-01-24T00:27:52;30.67;;;16.70;;
24715;SDS011;12822;50.124;8.678;2023-01-24T00:30:18;30.25;;;15.18;;
24715;SDS011;12822;50.124;8.678;2023-01-24T00:32:44;32.78;;;15.93;;
24715;SDS011;12822;50.124;8.678;2023-01-24T00:35:10;34.00;;;16.23;;
24715;SDS011;12822;50.124;8.678;2023-01-24T00:37:35;29.50;;;15.98;;
24715;SDS011;12822;50.124;8.678;2023-01-24T00:40:02;28.25;;;16.20;;
24715;SDS011;12822;50.124;8.678;2023-01-24T00:42:28;31.63;;;15.05;;
24715;SDS011;12822;50.124;8.678;2023-01-24T00:44:53;30.48;;;15.38;;
24715;SDS011;12822;50.124;8.678;2023-01-24T00:47:19;27.85;;;14.70;;
24715;SDS011;12822;50.124;8.678;2023-01-24T00:49:45;31.85;;;15.68;;
24715;SDS011;12822;50.124;8.678;2023-01-24T00:52:11;28.17;;;14.82;;
24715;SDS011;12822;50.124;8.678;2023-01-24T00:54:37;29.25;;;15.52;;
24715;SDS011;12822;50.124;8.678;2023-01-24T00:57:03;29.70;;;15.25;;
24715;SDS011;12822;50.124;8.678;2023-01-24T00:59:29;31.20;;;15.75;;
24715;SDS011;12822;50.124;8.678;2023-01-24T01:01:55;30.20;;;15.73;;
24715;SDS011;12822;50.124;8.678;2023-01-24T01:04:21;31.35;;;15.55;;
24715;SDS011;12822;50.124;8.678;2023-01-24T01:06:47;29.55;;;15.07;;
24715;SDS011;12822;50.124;8.678;2023-01-24T01:09:13;31.95;;;16.92;;
24715;SDS011;12822;50.124;8.678;2023-01-24T01:11:39;27.70;;;15.05;;
24715;SDS011;12822;50.124;8.678;2023-01-24T01:14:06;32.25;;;16.00;;
24715;SDS011;12822;50.124;8.678;2023-01-24T01:16:32;33.25;;;16.60;;
24715;SDS011;12822;50.124;8.678;2023-01-24T01:19:02;35.65;;;16.38;;
24715;SDS011;12822;50.124;8.678;2023-01-24T01:21:28;29.05;;;15.43;;
24715;SDS011;12822;50.124;8.678;2023-01-24T01:23:54;32.13;;;16.73;;
24715;SDS011;12822;50.124;8.678;2023-01-24T01:26:21;30.90;;;16.58;;
24715;SDS011;12822;50.124;8.678;2023-01-24T01:28:47;32.85;;;16.83;;
24715;SDS011;12822;50.124;8.678;2023-01-24T01:31:13;35.05;;;16.77;;
24715;SDS011;12822;50.124;8.678;2023-01-24T01:33:40;33.35;;;16.48;;
24715;SDS011;12822;50.124;8.678;2023-01-24T01:36:06;29.63;;;16.65;;
24715;SDS011;12822;50.124;8.678;2023-01-24T01:38:33;32.45;;;16.25;;
24715;SDS011;12822;50.124;8.678;2023-01-24T01:40:59;32.90;;;16.42;;
24715;SDS011;12822;50.124;8.678;2023-01-24T01:43:27;32.42;;;16.50;;
24715;SDS011;12822;50.124;8.678;2023-01-24T01:45:54;29.98;;;16.02;;
24715;SDS011;12822;50.124;8.678;2023-01-24T01:48:21;36.00;;;18.55;;
24715;SDS011;12822;50.124;8.678;2023-01-24T01:50:50;32.83;;;17.48;;
24715;SDS011;12822;50.124;8.678;2023-01-24T01:53:17;35.72;;;18.40;;
24715;SDS011;12822;50.124;8.678;2023-01-24T01:55:43;36.58;;;18.70;;
24715;SDS011;12822;50.124;8.678;2023-01-24T01:58:11;33.72;;;16.98;;
24715;SDS011;12822;50.124;8.678;2023-01-24T02:00:37;35.40;;;17.67;;
24715;SDS011;12822;50.124;8.678;2023-01-24T02:03:04;36.40;;;19.00;;
24715;SDS011;12822;50.124;8.678;2023-01-24T02:05:51;35.40;;;17.67;;
24715;SDS011;12822;50.124;8.678;2023-01-24T02:08:19;35.35;;;18.48;;
24715;SDS011;12822;50.124;8.678;2023-01-24T02:10:46;33.63;;;18.25;;
24715;SDS011;12822;50.124;8.678;2023-01-24T02:13:31;37.17;;;18.80;;
24715;SDS011;12822;50.124;8.678;2023-01-24T02:15:58;33.40;;;17.65;;
24715;SDS011;12822;50.124;8.678;2023-01-24T02:18:30;37.72;;;18.58;;
24715;SDS011;12822;50.124;8.678;2023-01-24T02:20:57;35.70;;;18.15;;
24715;SDS011;12822;50.124;8.678;2023-01-24T02:28:34;35.05;;;18.52;;
24715;SDS011;12822;50.124;8.678;2023-01-24T02:31:01;41.10;;;18.83;;
24715;SDS011;12822;50.124;8.678;2023-01-24T02:33:27;35.08;;;18.00;;
24715;SDS011;12822;50.124;8.678;2023-01-24T02:38:38;37.50;;;17.88;;
24715;SDS011;12822;50.124;8.678;2023-01-24T02:41:04;35.53;;;18.05;;
24715;SDS011;12822;50.124;8.678;2023-01-24T02:43:31;33.28;;;18.08;;
24715;SDS011;12822;50.124;8.678;2023-01-24T02:46:00;35.25;;;18.27;;
24715;SDS011;12822;50.124;8.678;2023-01-24T02:48:26;34.55;;;17.77;;
24715;SDS011;12822;50.124;8.678;2023-01-24T02:50:52;34.08;;;17.35;;
24715;SDS011;12822;50.124;8.678;2023-01-24T02:53:36;35.63;;;17.05;;
24715;SDS011;12822;50.124;8.678;2023-01-24T02:56:05;36.78;;;17.52;;
24715;SDS011;12822;50.124;8.678;2023-01-24T02:58:50;31.17;;;17.42;;
24715;SDS011;12822;50.124;8.678;2023-01-24T03:01:16;36.08;;;18.70;;
24715;SDS011;12822;50.124;8.678;2023-01-24T03:03:43;35.72;;;18.45;;
24715;SDS011;12822;50.124;8.678;2023-01-24T03:06:09;36.22;;;17.73;;
24715;SDS011;12822;50.124;8.678;2023-01-24T03:08:36;34.67;;;18.70;;
24715;SDS011;12822;50.124;8.678;2023-01-24T03:11:03;38.88;;;18.10;;
24715;SDS011;12822;50.124;8.678;2023-01-24T03:13:29;38.92;;;17.80;;
24715;SDS011;12822;50.124;8.678;2023-01-24T03:16:14;36.40;;;18.58;;
24715;SDS011;12822;50.124;8.678;2023-01-24T03:18:59;33.10;;;16.85;;
24715;SDS011;12822;50.124;8.678;2023-01-24T03:21:43;38.97;;;18.15;;
24715;SDS011;12822;50.124;8.678;2023-01-24T03:24:28;34.28;;;18.83;;
24715;SDS011;12822;50.124;8.678;2023-01-24T03:27:13;33.10;;;16.83;;
24715;SDS011;12822;50.124;8.678;2023-01-24T03:29:58;35.45;;;17.95;;
24715;SDS011;12822;50.124;8.678;2023-01-24T03:32:42;31.00;;;17.02;;
24715;SDS011;12822;50.124;8.678;2023-01-24T03:35:27;33.95;;;16.73;;
24715;SDS011;12822;50.124;8.678;2023-01-24T03:37:53;32.83;;;16.45;;
24715;SDS011;12822;50.124;8.678;2023-01-24T03:40:38;29.83;;;15.85;;
24715;SDS011;12822;50.124;8.678;2023-01-24T03:43:04;32.50;;;15.95;;
24715;SDS011;12822;50.124;8.678;2023-01-24T03:45:34;30.55;;;17.13;;
24715;SDS011;12822;50.124;8.678;2023-01-24T03:48:01;34.33;;;16.85;;
24715;SDS011;12822;50.124;8.678;2023-01-24T03:50:28;32.67;;;17.15;;
24715;SDS011;12822;50.124;8.678;2023-01-24T03:53:13;33.28;;;16.25;;
24715;SDS011;12822;50.124;8.678;2023-01-24T03:55:40;32.00;;;16.23;;
24715;SDS011;12822;50.124;8.678;2023-01-24T03:58:06;35.67;;;17.40;;
24715;SDS011;12822;50.124;8.678;2023-01-24T04:00:32;30.40;;;16.13;;
24715;SDS011;12822;50.124;8.678;2023-01-24T04:02:59;28.23;;;16.25;;
24715;SDS011;12822;50.124;8.678;2023-01-24T04:05:25;33.80;;;16.38;;
24715;SDS011;12822;50.124;8.678;2023-01-24T04:07:54;28.52;;;16.38;;
24715;SDS011;12822;50.124;8.678;2023-01-24T04:10:21;31.35;;;15.80;;
24715;SDS011;12822;50.124;8.678;2023-01-24T04:12:47;30.45;;;16.63;;
24715;SDS011;12822;50.124;8.678;2023-01-24T04:15:15;34.92;;;17.15;;
24715;SDS011;12822;50.124;8.678;2023-01-24T04:17:41;35.38;;;16.83;;
24715;SDS011;12822;50.124;8.678;2023-01-24T04:20:07;38.05;;;17.35;;
24715;SDS011;12822;50.124;8.678;2023-01-24T04:22:33;29.98;;;15.57;;
24715;SDS011;12822;50.124;8.678;2023-01-24T04:25:03;31.65;;;17.25;;
24715;SDS011;12822;50.124;8.678;2023-01-24T04:27:29;31.60;;;15.68;;
24715;SDS011;12822;50.124;8.678;2023-01-24T04:29:55;33.15;;;16.73;;
24715;SDS011;12822;50.124;8.678;2023-01-24T04:32:21;31.70;;;15.60;;
24715;SDS011;12822;50.124;8.678;2023-01-24T04:34:47;31.13;;;16.20;;
24715;SDS011;12822;50.124;8.678;2023-01-24T04:37:13;33.15;;;16.50;;
24715;SDS011;12822;50.124;8.678;2023-01-24T04:39:39;35.65;;;17.90;;
24715;SDS011;12822;50.124;8.678;2023-01-24T04:42:05;33.22;;;16.60;;
24715;SDS011;12822;50.124;8.678;2023-01-24T04:44:31;35.08;;;17.30;;
24715;SDS011;12822;50.124;8.678;2023-01-24T04:46:57;34.78;;;18.23;;
24715;SDS011;12822;50.124;8.678;2023-01-24T04:49:24;33.28;;;16.92;;
24715;SDS011;12822;50.124;8.678;2023-01-24T04:51:50;30.75;;;16.50;;
24715;SDS011;12822;50.124;8.678;2023-01-24T04:54:16;32.65;;;17.45;;
24715;SDS011;12822;50.124;8.678;2023-01-24T04:56:42;32.75;;;16.80;;
24715;SDS011;12822;50.124;8.678;2023-01-24T04:59:10;33.40;;;17.02;;
24715;SDS011;12822;50.124;8.678;2023-01-24T05:01:37;33.20;;;16.77;;
24715;SDS011;12822;50.124;8.678;2023-01-24T05:04:03;32.58;;;15.90;;
24715;SDS011;12822;50.124;8.678;2023-01-24T05:06:30;32.50;;;17.45;;
24715;SDS011;12822;50.124;8.678;2023-01-24T05:08:56;32.50;;;17.08;;
24715;SDS011;12822;50.124;8.678;2023-01-24T05:11:22;29.55;;;15.40;;
24715;SDS011;12822;50.124;8.678;2023-01-24T05:13:48;32.10;;;16.80;;
24715;SDS011;12822;50.124;8.678;2023-01-24T05:16:14;34.60;;;16.80;;
24715;SDS011;12822;50.124;8.678;2023-01-24T05:18:41;30.73;;;16.58;;
24715;SDS011;12822;50.124;8.678;2023-01-24T05:21:11;31.55;;;16.95;;
24715;SDS011;12822;50.124;8.678;2023-01-24T05:23:37;33.22;;;17.15;;
24715;SDS011;12822;50.124;8.678;2023-01-24T05:26:03;33.40;;;17.45;;
24715;SDS011;12822;50.124;8.678;2023-01-24T05:28:30;33.72;;;18.25;;
24715;SDS011;12822;50.124;8.678;2023-01-24T05:31:00;33.50;;;17.45;;
24715;SDS011;12822;50.124;8.678;2023-01-24T05:33:26;33.40;;;17.35;;
24715;SDS011;12822;50.124;8.678;2023-01-24T05:38:24;34.03;;;18.23;;
24715;SDS011;12822;50.124;8.678;2023-01-24T05:40:50;34.95;;;18.10;;
24715;SDS011;12822;50.124;8.678;2023-01-24T05:43:16;34.50;;;17.60;;
24715;SDS011;12822;50.124;8.678;2023-01-24T05:45:42;37.35;;;17.92;;
24715;SDS011;12822;50.124;8.678;2023-01-24T05:48:08;35.95;;;18.38;;
24715;SDS011;12822;50.124;8.678;2023-01-24T05:50:35;39.30;;;17.92;;
24715;SDS011;12822;50.124;8.678;2023-01-24T05:53:04;38.78;;;17.88;;
24715;SDS011;12822;50.124;8.678;2023-01-24T05:55:30;34.00;;;18.25;;
24715;SDS011;12822;50.124;8.678;2023-01-24T05:57:57;34.40;;;18.40;;
24715;SDS011;12822;50.124;8.678;2023-01-24T06:00:24;34.78;;;18.58;;
24715;SDS011;12822;50.124;8.678;2023-01-24T06:02:50;35.10;;;17.70;;
24715;SDS011;12822;50.124;8.678;2023-01-24T06:05:16;31.92;;;17.65;;
24715;SDS011;12822;50.124;8.678;2023-01-24T06:07:42;37.60;;;17.45;;
24715;SDS011;12822;50.124;8.678;2023-01-24T06:10:08;34.10;;;18.10;;
24715;SDS011;12822;50.124;8.678;2023-01-24T06:12:35;31.42;;;16.88;;
24715;SDS011;12822;50.124;8.678;2023-01-24T06:15:01;34.00;;;17.67;;
24715;SDS011;12822;50.124;8.678;2023-01-24T06:17:27;34.97;;;17.65;;
24715;SDS011;12822;50.124;8.678;2023-01-24T06:19:52;34.63;;;17.52;;
24715;SDS011;12822;50.124;8.678;2023-01-24T06:22:24;34.80;;;18.20;;
24715;SDS011;12822;50.124;8.678;2023-01-24T06:24:51;34.08;;;17.98;;
24715;SDS011;12822;50.124;8.678;2023-01-24T06:27:17;37.30;;;18.30;;
24715;SDS011;12822;50.124;8.678;2023-01-24T06:29:43;36.42;;;18.05;;
24715;SDS011;12822;50.124;8.678;2023-01-24T06:32:14;34.47;;;17.45;;
24715;SDS011;12822;50.124;8.678;2023-01-24T06:37:25;37.50;;;18.08;;
24715;SDS011;12822;50.124;8.678;2023-01-24T06:39:55;33.95;;;17.67;;
24715;SDS011;12822;50.124;8.678;2023-01-24T06:42:22;34.40;;;17.15;;
24715;SDS011;12822;50.124;8.678;2023-01-24T06:44:48;38.47;;;18.27;;
24715;SDS011;12822;50.124;8.678;2023-01-24T06:47:14;31.17;;;17.13;;
24715;SDS011;12822;50.124;8.678;2023-01-24T06:49:41;34.65;;;18.25;;
24715;SDS011;12822;50.124;8.678;2023-01-24T06:52:07;33.50;;;17.92;;
24715;SDS011;12822;50.124;8.678;2023-01-24T06:54:34;35.15;;;17.50;;
24715;SDS011;12822;50.124;8.678;2023-01-24T06:57:00;36.10;;;17.30;;
24715;SDS011;12822;50.124;8.678;2023-01-24T06:59:26;35.33;;;17.90;;
24715;SDS011;12822;50.124;8.678;2023-01-24T07:01:52;29.85;;;16.33;;
24715;SDS011;12822;50.124;8.678;2023-01-24T07:04:18;37.10;;;18.25;;
24715;SDS011;12822;50.124;8.678;2023-01-24T07:06:44;37.45;;;17.33;;
24715;SDS011;12822;50.124;8.678;2023-01-24T07:09:11;34.47;;;18.00;;
24715;SDS011;12822;50.124;8.678;2023-01-24T07:11:37;33.03;;;17.08;;
24715;SDS011;12822;50.124;8.678;2023-01-24T07:14:02;34.28;;;16.60;;
24715;SDS011;12822;50.124;8.678;2023-01-24T07:16:28;33.10;;;17.75;;
24715;SDS011;12822;50.124;8.678;2023-01-24T07:18:54;31.45;;;16.23;;
24715;SDS011;12822;50.124;8.678;2023-01-24T07:21:21;33.95;;;17.08;;
24715;SDS011;12822;50.124;8.678;2023-01-24T07:23:48;31.13;;;16.90;;
24715;SDS011;12822;50.124;8.678;2023-01-24T07:26:14;32.53;;;17.15;;
24715;SDS011;12822;50.124;8.678;2023-01-24T07:28:40;36.05;;;16.90;;
24715;SDS011;12822;50.124;8.678;2023-01-24T07:31:08;34.58;;;17.30;;
24715;SDS011;12822;50.124;8.678;2023-01-24T07:33:35;31.77;;;16.73;;
24715;SDS011;12822;50.124;8.678;2023-01-24T07:36:09;32.90;;;17.73;;
24715;SDS011;12822;50.124;8.678;2023-01-24T07:38:35;33.55;;;15.93;;
24715;SDS011;12822;50.124;8.678;2023-01-24T07:41:08;32.05;;;17.10;;
24715;SDS011;12822;50.124;8.678;2023-01-24T07:43:34;32.95;;;16.23;;
24715;SDS011;12822;50.124;8.678;2023-01-24T07:46:00;34.42;;;16.95;;
24715;SDS011;12822;50.124;8.678;2023-01-24T07:48:26;31.20;;;17.45;;
24715;SDS011;12822;50.124;8.678;2023-01-24T07:50:52;31.88;;;15.98;;
24715;SDS011;12822;50.124;8.678;2023-01-24T07:53:18;31.65;;;16.90;;
24715;SDS011;12822;50.124;8.678;2023-01-24T07:55:44;31.10;;;16.52;;
24715;SDS011;12822;50.124;8.678;2023-01-24T07:58:10;31.90;;;16.33;;
24715;SDS011;12822;50.124;8.678;2023-01-24T08:00:36;32.80;;;16.05;;
24715;SDS011;12822;50.124;8.678;2023-01-24T08:03:02;33.00;;;15.48;;
24715;SDS011;12822;50.124;8.678;2023-01-24T08:05:31;28.88;;;15.68;;
24715;SDS011;12822;50.124;8.678;2023-01-24T08:07:58;28.58;;;15.65;;
24715;SDS011;12822;50.124;8.678;2023-01-24T08:10:24;28.80;;;15.43;;
24715;SDS011;12822;50.124;8.678;2023-01-24T08:12:51;28.52;;;15.00;;
24715;SDS011;12822;50.124;8.678;2023-01-24T08:15:17;29.13;;;15.05;;
24715;SDS011;12822;50.124;8.678;2023-01-24T08:17:43;27.15;;;14.60;;
24715;SDS011;12822;50.124;8.678;2023-01-24T08:20:09;26.50;;;14.85;;
24715;SDS011;12822;50.124;8.678;2023-01-24T08:22:37;28.75;;;15.13;;
24715;SDS011;12822;50.124;8.678;2023-01-24T08:25:03;27.27;;;15.13;;
24715;SDS011;12822;50.124;8.678;2023-01-24T08:27:29;29.85;;;15.68;;
24715;SDS011;12822;50.124;8.678;2023-01-24T08:29:55;27.40;;;15.30;;
24715;SDS011;12822;50.124;8.678;2023-01-24T08:32:21;27.02;;;14.70;;
24715;SDS011;12822;50.124;8.678;2023-01-24T08:34:47;26.95;;;14.00;;
24715;SDS011;12822;50.124;8.678;2023-01-24T08:37:13;28.75;;;14.48;;
24715;SDS011;12822;50.124;8.678;2023-01-24T08:39:39;28.15;;;14.98;;
24715;SDS011;12822;50.124;8.678;2023-01-24T08:42:05;28.42;;;14.20;;
24715;SDS011;12822;50.124;8.678;2023-01-24T08:44:31;25.02;;;14.80;;
24715;SDS011;12822;50.124;8.678;2023-01-24T08:46:57;28.25;;;15.18;;
24715;SDS011;12822;50.124;8.678;2023-01-24T08:49:26;24.00;;;13.95;;
24715;SDS011;12822;50.124;8.678;2023-01-24T08:51:52;29.02;;;13.85;;
24715;SDS011;12822;50.124;8.678;2023-01-24T08:54:27;27.55;;;14.77;;
24715;SDS011;12822;50.124;8.678;2023-01-24T08:56:53;24.55;;;13.55;;
24715;SDS011;12822;50.124;8.678;2023-01-24T08:59:19;28.55;;;14.73;;
24715;SDS011;12822;50.124;8.678;2023-01-24T09:01:45;28.30;;;14.68;;
24715;SDS011;12822;50.124;8.678;2023-01-24T09:04:11;21.75;;;12.65;;
24715;SDS011;12822;50.124;8.678;2023-01-24T09:06:37;26.98;;;14.30;;
24715;SDS011;12822;50.124;8.678;2023-01-24T09:09:03;27.90;;;14.60;;
24715;SDS011;12822;50.124;8.678;2023-01-24T09:11:30;26.88;;;15.02;;
24715;SDS011;12822;50.124;8.678;2023-01-24T09:13:56;27.38;;;14.80;;
24715;SDS011;12822;50.124;8.678;2023-01-24T09:16:23;27.77;;;15.25;;
24715;SDS011;12822;50.124;8.678;2023-01-24T09:18:49;27.45;;;14.95;;
24715;SDS011;12822;50.124;8.678;2023-01-24T09:21:16;29.23;;;15.57;;
24715;SDS011;12822;50.124;8.678;2023-01-24T09:23:42;28.65;;;14.70;;
24715;SDS011;12822;50.124;8.678;2023-01-24T09:26:08;27.65;;;14.30;;
24715;SDS011;12822;50.124;8.678;2023-01-24T09:28:34;27.90;;;14.27;;
24715;SDS011;12822;50.124;8.678;2023-01-24T09:31:00;25.08;;;14.32;;
24715;SDS011;12822;50.124;8.678;2023-01-24T09:33:27;25.60;;;14.10;;
24715;SDS011;12822;50.124;8.678;2023-01-24T09:35:57;28.73;;;15.30;;
24715;SDS011;12822;50.124;8.678;2023-01-24T09:38:23;28.52;;;15.52;;
24715;SDS011;12822;50.124;8.678;2023-01-24T09:46:00;30.30;;;15.05;;
24715;SDS011;12822;50.124;8.678;2023-01-24T09:48:31;26.95;;;15.15;;
24715;SDS011;12822;50.124;8.678;2023-01-24T09:50:59;27.63;;;14.60;;
24715;SDS011;12822;50.124;8.678;2023-01-24T09:53:29;25.23;;;14.45;;
24715;SDS011;12822;50.124;8.678;2023-01-24T09:55:56;27.13;;;14.73;;
24715;SDS011;12822;50.124;8.678;2023-01-24T09:58:28;26.42;;;13.57;;
24715;SDS011;12822;50.124;8.678;2023-01-24T10:01:00;26.60;;;13.52;;
24715;SDS011;12822;50.124;8.678;2023-01-24T10:03:26;24.52;;;13.57;;
24715;SDS011;12822;50.124;8.678;2023-01-24T10:05:54;24.00;;;13.27;;
24715;SDS011;12822;50.124;8.678;2023-01-24T10:08:24;23.00;;;13.18;;
24715;SDS011;12822;50.124;8.678;2023-01-24T10:18:40;20.17;;;12.20;;
24715;SDS011;12822;50.124;8.678;2023-01-24T10:23:54;26.45;;;13.77;;
24715;SDS011;12822;50.124;8.678;2023-01-24T10:28:50;21.98;;;12.70;;
24715;SDS011;12822;50.124;8.678;2023-01-24T10:31:19;21.05;;;11.73;;
24715;SDS011;12822;50.124;8.678;2023-01-24T10:33:47;20.23;;;11.50;;
24715;SDS011;12822;50.124;8.678;2023-01-24T10:36:15;21.63;;;12.48;;
24715;SDS011;12822;50.124;8.678;2023-01-24T10:38:42;20.77;;;11.82;;
24715;SDS011;12822;50.124;8.678;2023-01-24T10:43:34;19.20;;;10.80;;
24715;SDS011;12822;50.124;8.678;2023-01-24T10:46:15;21.20;;;11.13;;
24715;SDS011;12822;50.124;8.678;2023-01-24T10:48:49;19.65;;;11.18;;
24715;SDS011;12822;50.124;8.678;2023-01-24T10:51:17;21.27;;;11.35;;
24715;SDS011;12822;50.124;8.678;2023-01-24T10:53:43;17.98;;;10.48;;
24715;SDS011;12822;50.124;8.678;2023-01-24T10:56:10;17.90;;;10.32;;
24715;SDS011;12822;50.124;8.678;2023-01-24T11:01:21;17.42;;;10.00;;
24715;SDS011;12822;50.124;8.678;2023-01-24T11:03:48;18.98;;;10.40;;
24715;SDS011;12822;50.124;8.678;2023-01-24T11:06:33;18.75;;;10.07;;
24715;SDS011;12822;50.124;8.678;2023-01-24T11:09:02;17.83;;;9.60;;
24715;SDS011;12822;50.124;8.678;2023-01-24T11:11:29;15.60;;;9.65;;
24715;SDS011;12822;50.124;8.678;2023-01-24T11:13:56;22.55;;;11.70;;
24715;SDS011;12822;50.124;8.678;2023-01-24T11:20:00;22.58;;;12.35;;
24715;SDS011;12822;50.124;8.678;2023-01-24T11:22:20;23.23;;;13.00;;
24715;SDS011;12822;50.124;8.678;2023-01-24T11:24:48;24.83;;;13.15;;
24715;SDS011;12822;50.124;8.678;2023-01-24T11:27:16;25.45;;;14.35;;
24715;SDS011;12822;50.124;8.678;2023-01-24T11:29:42;24.02;;;14.40;;
24715;SDS011;12822;50.124;8.678;2023-01-24T11:34:55;24.50;;;13.00;;
24715;SDS011;12822;50.124;8.678;2023-01-24T11:42:38;24.50;;;14.15;;
24715;SDS011;12822;50.124;8.678;2023-01-24T11:47:34;23.65;;;13.95;;
24715;SDS011;12822;50.124;8.678;2023-01-24T11:50:04;22.60;;;13.07;;
24715;SDS011;12822;50.124;8.678;2023-01-24T11:52:45;22.83;;;13.35;;
24715;SDS011;12822;50.124;8.678;2023-01-24T11:58:43;23.13;;;12.23;;
24715;SDS011;12822;50.124;8.678;2023-01-24T12:00:55;21.88;;;12.30;;
24715;SDS011;12822;50.124;8.678;2023-01-24T12:03:40;23.02;;;12.95;;
24715;SDS011;12822;50.124;8.678;2023-01-24T12:06:21;21.02;;;12.70;;
24715;SDS011;12822;50.124;8.678;2023-01-24T12:09:04;23.70;;;13.32;;
24715;SDS011;12822;50.124;8.678;2023-01-24T12:11:41;21.13;;;11.63;;
24715;SDS011;12822;50.124;8.678;2023-01-24T12:19:22;21.35;;;12.00;;
24715;SDS011;12822;50.124;8.678;2023-01-24T12:21:54;21.95;;;12.95;;
24715;SDS011;12822;50.124;8.678;2023-01-24T12:24:22;20.58;;;12.13;;
24715;SDS011;12822;50.124;8.678;2023-01-24T12:26:50;22.27;;;12.18;;
24715;SDS011;12822;50.124;8.678;2023-01-24T12:29:27;17.65;;;10.85;;
24715;SDS011;12822;50.124;8.678;2023-01-24T12:39:59;20.50;;;11.68;;
24715;SDS011;12822;50.124;8.678;2023-01-24T12:42:47;21.80;;;12.02;;
24715;SDS011;12822;50.124;8.678;2023-01-24T12:45:16;21.60;;;11.43;;
24715;SDS011;12822;50.124;8.678;2023-01-24T12:47:45;22.02;;;11.48;;
24715;SDS011;12822;50.124;8.678;2023-01-24T12:55:30;26.50;;;10.93;;
24715;SDS011;12822;50.124;8.678;2023-01-24T12:57:59;19.08;;;10.70;;
24715;SDS011;12822;50.124;8.678;2023-01-24T13:00:26;19.65;;;11.18;;
24715;SDS011;12822;50.124;8.678;2023-01-24T13:08:13;23.48;;;10.77;;
24715;SDS011;12822;50.124;8.678;2023-01-24T13:13:28;18.60;;;10.95;;
24715;SDS011;12822;50.124;8.678;2023-01-24T13:21:03;20.58;;;11.20;;
24715;SDS011;12822;50.124;8.678;2023-01-24T13:26:22;18.48;;;11.27;;
24715;SDS011;12822;50.124;8.678;2023-01-24T13:33:45;17.33;;;10.52;;
24715;SDS011;12822;50.124;8.678;2023-01-24T13:36:16;19.08;;;11.50;;
24715;SDS011;12822;50.124;8.678;2023-01-24T13:38:43;20.17;;;11.20;;
24715;SDS011;12822;50.124;8.678;2023-01-24T13:41:17;17.77;;;10.60;;
24715;SDS011;12822;50.124;8.678;2023-01-24T13:46:14;17.73;;;10.18;;
24715;SDS011;12822;50.124;8.678;2023-01-24T13:53:56;20.25;;;11.73;;
24715;SDS011;12822;50.124;8.678;2023-01-24T13:56:22;18.25;;;9.95;;
24715;SDS011;12822;50.124;8.678;2023-01-24T13:58:48;18.48;;;9.63;;
24715;SDS011;12822;50.124;8.678;2023-01-24T14:01:16;17.77;;;9.95;;
24715;SDS011;12822;50.124;8.678;2023-01-24T14:03:52;16.98;;;10.00;;
24715;SDS011;12822;50.124;8.678;2023-01-24T14:06:18;22.63;;;10.52;;
24715;SDS011;12822;50.124;8.678;2023-01-24T14:08:45;18.02;;;10.00;;
24715;SDS011;12822;50.124;8.678;2023-01-24T14:11:22;16.95;;;10.32;;
24715;SDS011;12822;50.124;8.678;2023-01-24T14:22:02;15.98;;;10.23;;
24715;SDS011;12822;50.124;8.678;2023-01-24T14:24:34;19.05;;;11.02;;
24715;SDS011;12822;50.124;8.678;2023-01-24T14:27:46;17.92;;;9.93;;
24715;SDS011;12822;50.124;8.678;2023-01-24T14:29:48;16.85;;;10.32;;
24715;SDS011;12822;50.124;8.678;2023-01-24T14:32:17;18.25;;;11.07;;
24715;SDS011;12822;50.124;8.678;2023-01-24T14:34:44;20.65;;;9.77;;
24715;SDS011;12822;50.124;8.678;2023-01-24T14:37:13;16.40;;;9.88;;
24715;SDS011;12822;50.124;8.678;2023-01-24T14:39:41;16.05;;;9.70;;
24715;SDS011;12822;50.124;8.678;2023-01-24T14:42:14;17.33;;;10.85;;
24715;SDS011;12822;50.124;8.678;2023-01-24T14:44:54;22.38;;;10.43;;
24715;SDS011;12822;50.124;8.678;2023-01-24T14:47:27;17.80;;;9.75;;
24715;SDS011;12822;50.124;8.678;2023-01-24T14:49:55;20.90;;;10.55;;
24715;SDS011;12822;50.124;8.678;2023-01-24T14:52:28;17.17;;;10.50;;
24715;SDS011;12822;50.124;8.678;2023-01-24T14:54:56;16.77;;;10.43;;
24715;SDS011;12822;50.124;8.678;2023-01-24T14:57:24;18.08;;;10.38;;
24715;SDS011;12822;50.124;8.678;2023-01-24T15:00:00;19.80;;;10.20;;
24715;SDS011;12822;50.124;8.678;2023-01-24T15:02:30;17.52;;;10.05;;
24715;SDS011;12822;50.124;8.678;2023-01-24T15:04:56;25.10;;;9.88;;
24715;SDS011;12822;50.124;8.678;2023-01-24T15:07:22;15.95;;;8.95;;
24715;SDS011;12822;50.124;8.678;2023-01-24T15:09:48;15.38;;;9.25;;
24715;SDS011;12822;50.124;8.678;2023-01-24T15:14:46;17.73;;;10.20;;
24715;SDS011;12822;50.124;8.678;2023-01-24T15:17:16;14.60;;;8.85;;
24715;SDS011;12822;50.124;8.678;2023-01-24T15:19:52;16.08;;;9.32;;
24715;SDS011;12822;50.124;8.678;2023-01-24T15:22:21;15.02;;;9.35;;
24715;SDS011;12822;50.124;8.678;2023-01-24T15:24:51;15.02;;;9.15;;
24715;SDS011;12822;50.124;8.678;2023-01-24T15:32:43;17.77;;;9.30;;
24715;SDS011;12822;50.124;8.678;2023-01-24T15:40:18;16.60;;;9.75;;
24715;SDS011;12822;50.124;8.678;2023-01-24T15:42:51;14.38;;;8.95;;
24715;SDS011;12822;50.124;8.678;2023-01-24T15:45:37;17.08;;;9.85;;
24715;SDS011;12822;50.124;8.678;2023-01-24T15:48:11;15.52;;;9.25;;
24715;SDS011;12822;50.124;8.678;2023-01-24T15:50:47;14.60;;;8.85;;
24715;SDS011;12822;50.124;8.678;2023-01-24T15:53:35;16.73;;;9.63;;
24715;SDS011;12822;50.124;8.678;2023-01-24T15:56:02;16.73;;;9.82;;
24715;SDS011;12822;50.124;8.678;2023-01-24T15:58:29;14.77;;;9.23;;
24715;SDS011;12822;50.124;8.678;2023-01-24T16:00:56;17.48;;;9.55;;
24715;SDS011;12822;50.124;8.678;2023-01-24T16:03:22;15.52;;;9.13;;
24715;SDS011;12822;50.124;8.678;2023-01-24T16:05:48;17.70;;;9.88;;
24715;SDS011;12822;50.124;8.678;2023-01-24T16:08:14;16.38;;;9.32;;
24715;SDS011;12822;50.124;8.678;2023-01-24T16:10:41;21.88;;;9.75;;
24715;SDS011;12822;50.124;8.678;2023-01-24T16:15:45;17.40;;;9.60;;
24715;SDS011;12822;50.124;8.678;2023-01-24T16:18:13;18.15;;;9.73;;
24715;SDS011;12822;50.124;8.678;2023-01-24T16:20:39;17.63;;;9.35;;
24715;SDS011;12822;50.124;8.678;2023-01-24T16:23:05;15.48;;;9.70;;
24715;SDS011;12822;50.124;8.678;2023-01-24T16:25:31;15.50;;;9.32;;
24715;SDS011;12822;50.124;8.678;2023-01-24T16:27:58;16.55;;;9.98;;
24715;SDS011;12822;50.124;8.678;2023-01-24T16:30:24;19.48;;;9.32;;
24715;SDS011;12822;50.124;8.678;2023-01-24T16:32:52;16.55;;;10.30;;
24715;SDS011;12822;50.124;8.678;2023-01-24T16:35:18;18.17;;;10.15;;